Time;durP1;ratioP1;P1;durP2;ratioP2;P2;SDS_P1;SDS_P2;PMS_P1;PMS_P2;Temp;Humidity;BMP_temperature;BMP_pressure;BME280_temperature;BME280_humidity;BME280_pressure;Samples;Min_cycle;Max_cycle;Signal;HPM_P1;HPM_P2
2023/04/25 00:00:18;;;;;;;;;;;22.00;59.40;;;;;;4790503;55;20071;-31
2023/04/25 00:05:19;;;;;;;;;;;22.00;60.20;;;;;;4791647;55;20469;-27
2023/04/25 00:10:20;;;;;;;;;;;22.00;59.50;;;;;;4793520;55;20382;-33
2023/04/25 00:15:20;;;;;;;;;;;22.00;59.30;;;;;;4770496;55;20135;-28
2023/04/25 00:20:23;;;;;;;;;;;22.00;59.40;;;;;;4759420;55;20295;-29
2023/04/25 00:25:23;;;;;;;;;;;22.00;59.40;;;;;;4766665;55;20363;-28
2023/04/25 00:30:24;;;;;;;;;;;22.00;59.40;;;;;;4867682;55;20136;-32
2023/04/25 00:35:25;;;;;;;;;;;22.00;59.40;;;;;;4756314;55;20295;-32
2023/04/25 00:40:26;;;;;;;;;;;22.00;59.50;;;;;;4746719;58;20057;-32
2023/04/25 00:45:28;;;;;;;;;;;22.00;59.40;;;;;;4761634;55;20374;-33
2023/04/25 00:50:29;;;;;;;;;;;22.00;59.40;;;;;;4914725;55;20295;-31
2023/04/25 00:55:31;;;;;;;;;;;22.00;59.50;;;;;;4869682;55;20117;-28
2023/04/25 01:00:32;;;;;;;;;;;22.00;59.50;;;;;;4869032;55;20279;-31
2023/04/25 01:05:32;;;;;;;;;;;22.00;59.50;;;;;;4760805;55;20068;-29
2023/04/25 01:10:33;;;;;;;;;;;22.00;59.40;;;;;;4746126;58;20331;-29
2023/04/25 01:15:35;;;;;;;;;;;22.00;59.40;;;;;;4746649;58;20076;-29
2023/04/25 01:20:36;;;;;;;;;;;22.00;59.50;;;;;;4746565;58;20335;-30
2023/04/25 01:25:37;;;;;;;;;;;22.00;59.50;;;;;;4749906;55;20080;-30
2023/04/25 01:30:38;;;;;;;;;;;22.00;59.50;;;;;;4745905;58;20260;-30
2023/04/25 01:35:40;;;;;;;;;;;22.00;59.50;;;;;;4841493;55;20140;-30
2023/04/25 01:40:41;;;;;;;;;;;22.00;59.50;;;;;;4823311;55;20748;-29
2023/04/25 01:45:41;;;;;;;;;;;22.00;59.40;;;;;;4746445;58;20276;-28
2023/04/25 01:50:42;;;;;;;;;;;22.00;59.50;;;;;;4746428;56;20160;-29
2023/04/25 01:55:43;;;;;;;;;;;22.00;59.50;;;;;;4893972;55;20097;-29
2023/04/25 02:00:44;;;;;;;;;;;22.00;59.40;;;;;;4747120;58;20152;-28
2023/04/25 02:05:45;;;;;;;;;;;22.00;59.50;;;;;;4783713;55;20344;-29
2023/04/25 02:10:45;;;;;;;;;;;22.00;59.40;;;;;;4747130;55;20084;-29
2023/04/25 02:15:46;;;;;;;;;;;22.00;59.40;;;;;;4780490;55;20117;-27
2023/04/25 02:20:47;;;;;;;;;;;22.00;59.40;;;;;;4846212;55;20072;-29
2023/04/25 02:25:48;;;;;;;;;;;22.00;59.40;;;;;;4753677;55;20108;-30
2023/04/25 02:30:49;;;;;;;;;;;22.00;59.50;;;;;;4768133;55;20088;-30
2023/04/25 02:35:49;;;;;;;;;;;22.00;59.40;;;;;;4769396;55;20084;-29
2023/04/25 02:40:50;;;;;;;;;;;22.00;59.40;;;;;;4809740;55;20152;-27
2023/04/25 02:45:50;;;;;;;;;;;22.00;59.30;;;;;;4747228;55;20685;-29
2023/04/25 02:50:51;;;;;;;;;;;22.00;59.30;;;;;;4801645;55;20116;-30
2023/04/25 02:55:52;;;;;;;;;;;22.00;59.40;;;;;;4747861;55;20116;-27
2023/04/25 03:00:53;;;;;;;;;;;22.00;59.30;;;;;;4765470;55;20072;-31
2023/04/25 03:05:54;;;;;;;;;;;22.00;59.30;;;;;;4770875;55;20291;-29
2023/04/25 03:10:55;;;;;;;;;;;22.00;59.40;;;;;;4793701;55;20105;-29
2023/04/25 03:15:56;;;;;;;;;;;22.00;59.50;;;;;;4746734;58;20303;-30
2023/04/25 03:20:56;;;;;;;;;;;22.00;59.40;;;;;;4746407;58;20100;-27
2023/04/25 03:25:57;;;;;;;;;;;22.00;59.40;;;;;;4786873;55;20076;-31
2023/04/25 03:30:58;;;;;;;;;;;22.00;59.40;;;;;;4933991;54;20301;-28
2023/04/25 03:35:58;;;;;;;;;;;22.00;59.30;;;;;;4889948;55;20068;-28
2023/04/25 03:40:59;;;;;;;;;;;22.00;59.30;;;;;;4762894;55;20080;-27
2023/04/25 03:46:01;;;;;;;;;;;22.00;59.40;;;;;;4746681;58;20358;-30
2023/04/25 03:51:01;;;;;;;;;;;22.00;59.40;;;;;;4815625;55;20112;-29
2023/04/25 03:56:02;;;;;;;;;;;22.00;59.30;;;;;;4746702;58;20121;-29
2023/04/25 04:01:07;;;;;;;;;;;22.00;59.30;;;;;;4767244;55;20069;-27
2023/04/25 04:06:08;;;;;;;;;;;22.00;59.30;;;;;;4746484;58;20068;-28
2023/04/25 04:11:09;;;;;;;;;;;22.00;59.30;;;;;;4781266;55;20342;-27
2023/04/25 04:16:10;;;;;;;;;;;22.00;59.20;;;;;;4746828;58;20165;-30
2023/04/25 04:21:10;;;;;;;;;;;22.00;59.30;;;;;;4881035;55;20113;-29
2023/04/25 04:26:12;;;;;;;;;;;21.90;59.20;;;;;;4756615;55;20127;-29
2023/04/25 04:31:15;;;;;;;;;;;22.00;59.30;;;;;;4874470;54;20108;-29
2023/04/25 04:36:19;;;;;;;;;;;22.00;59.40;;;;;;4842469;55;20052;-30
2023/04/25 04:41:20;;;;;;;;;;;22.00;59.50;;;;;;4781120;55;20268;-30
2023/04/25 04:46:21;;;;;;;;;;;22.00;59.50;;;;;;4795552;55;20466;-27
2023/04/25 04:51:22;;;;;;;;;;;22.00;59.50;;;;;;4758332;55;20668;-28
2023/04/25 04:56:23;;;;;;;;;;;22.00;59.50;;;;;;4789905;55;20084;-28
2023/04/25 05:01:24;;;;;;;;;;;22.00;59.90;;;;;;4803153;55;20753;-27
2023/04/25 05:06:28;;;;;;;;;;;21.90;59.40;;;;;;4780402;55;20788;-29
2023/04/25 05:11:29;;;;;;;;;;;22.00;59.50;;;;;;4833765;55;20117;-28
2023/04/25 05:16:30;;;;;;;;;;;21.90;59.30;;;;;;4809177;55;20326;-30
2023/04/25 05:21:31;;;;;;;;;;;21.90;59.40;;;;;;4746426;55;20112;-25
2023/04/25 05:26:31;;;;;;;;;;;21.90;59.40;;;;;;4751268;55;20335;-31
2023/04/25 05:31:32;;;;;;;;;;;21.90;59.20;;;;;;4758318;55;20101;-29
2023/04/25 05:36:33;;;;;;;;;;;21.90;59.30;;;;;;4746253;58;20048;-27
2023/04/25 05:41:33;;;;;;;;;;;21.90;59.20;;;;;;4746971;58;20377;-28
2023/04/25 05:46:34;;;;;;;;;;;21.90;59.10;;;;;;4786691;55;20076;-30
2023/04/25 05:51:35;;;;;;;;;;;21.90;59.20;;;;;;4771702;55;20274;-28
2023/04/25 05:56:36;;;;;;;;;;;21.90;59.10;;;;;;4783368;55;20065;-29
2023/04/25 06:01:36;;;;;;;;;;;21.90;59.10;;;;;;4798784;55;20084;-28
2023/04/25 06:06:37;;;;;;;;;;;21.90;59.10;;;;;;4746221;58;20115;-32
2023/04/25 06:11:38;;;;;;;;;;;21.90;59.10;;;;;;4757763;55;20061;-30
2023/04/25 06:16:38;;;;;;;;;;;21.90;59.00;;;;;;4746015;58;20108;-28
2023/04/25 06:21:39;;;;;;;;;;;21.90;59.00;;;;;;4746258;58;20112;-29
2023/04/25 06:26:39;;;;;;;;;;;21.90;59.00;;;;;;4750819;55;20347;-31
2023/04/25 06:31:40;;;;;;;;;;;21.90;58.90;;;;;;4765443;55;20105;-26
2023/04/25 06:36:43;;;;;;;;;;;21.90;59.00;;;;;;4760244;55;20291;-27
2023/04/25 06:41:44;;;;;;;;;;;21.90;58.90;;;;;;4770558;55;20367;-30
2023/04/25 06:46:45;;;;;;;;;;;21.90;58.80;;;;;;4793341;55;20060;-29
2023/04/25 06:51:45;;;;;;;;;;;21.90;58.90;;;;;;4818282;55;20088;-28
2023/04/25 06:56:46;;;;;;;;;;;21.90;58.80;;;;;;4805545;55;20327;-25
2023/04/25 07:01:47;;;;;;;;;;;21.90;58.90;;;;;;4746420;56;20100;-27
2023/04/25 07:06:48;;;;;;;;;;;21.90;58.80;;;;;;4797592;55;20073;-29
2023/04/25 07:11:48;;;;;;;;;;;21.90;58.80;;;;;;4769548;55;20401;-26
2023/04/25 07:16:49;;;;;;;;;;;21.90;58.70;;;;;;4764396;55;20124;-28
2023/04/25 07:21:50;;;;;;;;;;;21.90;58.80;;;;;;4772606;55;20263;-30
2023/04/25 07:26:50;;;;;;;;;;;21.90;58.80;;;;;;4758660;55;20121;-29
2023/04/25 07:31:51;;;;;;;;;;;21.90;58.70;;;;;;4794390;55;20302;-27
2023/04/25 07:36:52;;;;;;;;;;;21.90;58.70;;;;;;4745609;55;20314;-24
2023/04/25 07:41:53;;;;;;;;;;;21.90;58.60;;;;;;4746627;55;20119;-27
2023/04/25 07:46:54;;;;;;;;;;;21.90;58.60;;;;;;4768415;55;20104;-27
2023/04/25 07:51:54;;;;;;;;;;;21.90;58.60;;;;;;4744611;58;20060;-28
2023/04/25 07:56:55;;;;;;;;;;;21.90;58.60;;;;;;4748689;55;20318;-22
2023/04/25 08:01:57;;;;;;;;;;;21.90;58.50;;;;;;4771762;55;20167;-29
2023/04/25 08:06:57;;;;;;;;;;;21.90;58.60;;;;;;4746604;55;20283;-28
2023/04/25 08:11:58;;;;;;;;;;;21.90;58.50;;;;;;4743864;55;20068;-26
2023/04/25 08:16:59;;;;;;;;;;;22.00;58.60;;;;;;4744587;55;20092;-28
2023/04/25 08:21:59;;;;;;;;;;;22.10;58.60;;;;;;4773394;55;20207;-24
2023/04/25 08:27:00;;;;;;;;;;;22.10;58.60;;;;;;4749579;55;20068;-27
2023/04/25 08:32:01;;;;;;;;;;;22.10;58.50;;;;;;4744918;55;20056;-27
2023/04/25 08:37:01;;;;;;;;;;;22.20;58.60;;;;;;4781125;55;20112;-24
2023/04/25 08:42:09;;;;;;;;;;;22.20;58.50;;;;;;4756077;55;20441;-25
2023/04/25 08:47:09;;;;;;;;;;;22.20;58.50;;;;;;4781089;55;20093;-23
2023/04/25 08:52:11;;;;;;;;;;;22.30;58.50;;;;;;4751519;55;20103;-26
2023/04/25 08:57:15;;;;;;;;;;;22.30;58.50;;;;;;4745693;55;20058;-29
2023/04/25 09:02:17;;;;;;;;;;;22.30;58.60;;;;;;4763449;55;20096;-28
2023/04/25 09:07:21;;;;;;;;;;;22.40;58.70;;;;;;4754701;55;20805;-25
2023/04/25 09:12:22;;;;;;;;;;;22.40;58.70;;;;;;4760176;55;20115;-24
2023/04/25 09:17:26;;;;;;;;;;;22.40;58.70;;;;;;4786995;55;20064;-23
2023/04/25 09:22:26;;;;;;;;;;;22.40;58.70;;;;;;4762622;55;20092;-27
2023/04/25 09:27:27;;;;;;;;;;;22.40;58.70;;;;;;4744016;58;20302;-27
2023/04/25 09:32:28;;;;;;;;;;;22.40;58.70;;;;;;4755370;55;20111;-29
2023/04/25 09:37:29;;;;;;;;;;;22.40;58.50;;;;;;4765811;55;20067;-28
2023/04/25 09:42:31;;;;;;;;;;;22.40;58.40;;;;;;4819461;55;20122;-27
2023/04/25 09:47:37;;;;;;;;;;;22.40;58.40;;;;;;4753482;55;20861;-28
2023/04/25 09:52:38;;;;;;;;;;;22.40;58.30;;;;;;4744236;58;20283;-28
2023/04/25 09:57:39;;;;;;;;;;;22.40;58.30;;;;;;4802201;55;20172;-27
2023/04/25 10:02:44;;;;;;;;;;;22.40;58.90;;;;;;4746380;55;20311;-28
2023/04/25 10:07:45;;;;;;;;;;;22.50;58.20;;;;;;4766279;55;20076;-27
2023/04/25 10:12:46;;;;;;;;;;;22.50;58.30;;;;;;4743942;55;20096;-25
2023/04/25 10:17:47;;;;;;;;;;;22.50;58.40;;;;;;4759169;55;20379;-26
2023/04/25 10:22:53;;;;;;;;;;;22.50;58.40;;;;;;4758589;55;20064;-26
2023/04/25 10:27:54;;;;;;;;;;;22.40;58.30;;;;;;4810381;54;20370;-28
2023/04/25 10:32:58;;;;;;;;;;;22.50;58.80;;;;;;4751393;55;20121;-29
2023/04/25 10:38:19;;;;;;;;;;;22.50;58.50;;;;;;4766156;55;20195;-26
2023/04/25 10:43:39;;;;;;;;;;;22.50;58.40;;;;;;4744929;55;20124;-27
2023/04/25 10:48:45;;;;;;;;;;;22.40;58.40;;;;;;4769145;55;20275;-26
2023/04/25 10:53:46;;;;;;;;;;;22.40;58.40;;;;;;4745057;58;20131;-27
2023/04/25 10:58:47;;;;;;;;;;;22.40;58.40;;;;;;4754958;55;20096;-26
2023/04/25 11:03:50;;;;;;;;;;;22.40;58.40;;;;;;4816020;55;20374;-30
2023/04/25 11:08:51;;;;;;;;;;;22.30;58.90;;;;;;4746620;58;20343;-30
2023/04/25 11:13:51;;;;;;;;;;;22.30;58.40;;;;;;4861485;55;20076;-27
2023/04/25 11:18:52;;;;;;;;;;;22.30;58.40;;;;;;4746468;58;20172;-27
2023/04/25 11:23:53;;;;;;;;;;;22.30;58.40;;;;;;4746580;58;20088;-31
2023/04/25 11:28:58;;;;;;;;;;;22.30;58.50;;;;;;4761554;55;20250;-30
2023/04/25 11:33:59;;;;;;;;;;;22.20;58.30;;;;;;4755510;55;20365;-29
2023/04/25 11:39:03;;;;;;;;;;;22.20;58.30;;;;;;4784483;55;20302;-29
2023/04/25 11:44:05;;;;;;;;;;;22.20;58.30;;;;;;4760131;55;20104;-28
2023/04/25 11:49:06;;;;;;;;;;;22.20;58.30;;;;;;4799509;55;20312;-30
2023/04/25 11:54:07;;;;;;;;;;;22.20;58.00;;;;;;4745679;55;20113;-28
2023/04/25 11:59:08;;;;;;;;;;;22.20;58.10;;;;;;4807358;55;20299;-31
2023/04/25 12:04:16;;;;;;;;;;;22.20;58.10;;;;;;4781828;55;20100;-28
2023/04/25 12:09:18;;;;;;;;;;;22.20;58.10;;;;;;4746699;55;20079;-28
2023/04/25 12:14:28;;;;;;;;;;;22.20;58.00;;;;;;4759899;55;20338;-27
2023/04/25 12:19:34;;;;;;;;;;;22.20;58.00;;;;;;4748564;55;20076;-30
2023/04/25 12:24:35;;;;;;;;;;;22.30;58.40;;;;;;4777266;55;20346;-25
2023/04/25 12:29:36;;;;;;;;;;;22.40;58.70;;;;;;4752917;55;20104;-28
2023/04/25 12:34:37;;;;;;;;;;;22.40;58.80;;;;;;4754539;55;20346;-24
2023/04/25 12:39:38;;;;;;;;;;;22.40;58.80;;;;;;4776143;55;20073;-26
2023/04/25 12:44:39;;;;;;;;;;;22.40;59.00;;;;;;4780472;55;20093;-28
2023/04/25 12:49:40;;;;;;;;;;;22.50;59.00;;;;;;4758027;55;20315;-25
2023/04/25 12:54:44;;;;;;;;;;;22.50;59.10;;;;;;4768433;55;20185;-28
2023/04/25 12:59:44;;;;;;;;;;;22.50;59.20;;;;;;4747113;55;20116;-28
2023/04/25 13:04:48;;;;;;;;;;;22.50;59.20;;;;;;4747320;55;20644;-27
2023/04/25 13:09:49;;;;;;;;;;;22.50;59.20;;;;;;4757422;55;20091;-28
2023/04/25 13:14:49;;;;;;;;;;;22.60;59.50;;;;;;4743307;58;20466;-28
2023/04/25 13:19:50;;;;;;;;;;;22.60;59.50;;;;;;4765767;55;20211;-27
2023/04/25 13:24:51;;;;;;;;;;;22.60;59.50;;;;;;4744561;55;20092;-31
2023/04/25 13:29:51;;;;;;;;;;;22.60;59.60;;;;;;4759486;55;20096;-24
2023/04/25 13:34:52;;;;;;;;;;;22.60;59.60;;;;;;4758250;55;20063;-26
2023/04/25 13:39:55;;;;;;;;;;;22.60;59.60;;;;;;4772966;55;20088;-26
2023/04/25 13:44:58;;;;;;;;;;;22.70;59.60;;;;;;4767218;55;20403;-26
2023/04/25 13:49:59;;;;;;;;;;;22.70;60.30;;;;;;4787376;55;20398;-20
2023/04/25 13:55:02;;;;;;;;;;;22.70;59.60;;;;;;4776052;55;20136;-26
2023/04/25 14:00:08;;;;;;;;;;;22.70;59.70;;;;;;4755314;55;20343;-25
2023/04/25 14:05:09;;;;;;;;;;;22.70;59.70;;;;;;4743687;58;20318;-30
2023/04/25 14:10:10;;;;;;;;;;;22.70;59.70;;;;;;4744122;58;20116;-29
2023/04/25 14:15:10;;;;;;;;;;;22.70;59.70;;;;;;4749931;55;20096;-29
2023/04/25 14:20:11;;;;;;;;;;;22.70;59.60;;;;;;4787353;55;20176;-27
2023/04/25 14:25:12;;;;;;;;;;;22.70;59.60;;;;;;4744183;58;20057;-28
2023/04/25 14:30:13;;;;;;;;;;;22.70;59.60;;;;;;4794878;55;20355;-27
2023/04/25 14:35:14;;;;;;;;;;;22.70;59.60;;;;;;4745620;58;20072;-27
2023/04/25 14:40:16;;;;;;;;;;;22.70;59.40;;;;;;4744909;58;20112;-27
2023/04/25 14:45:17;;;;;;;;;;;22.60;59.30;;;;;;4778421;55;20604;-30
2023/04/25 14:50:18;;;;;;;;;;;22.60;59.40;;;;;;4806189;55;20079;-30
2023/04/25 14:55:18;;;;;;;;;;;22.60;59.30;;;;;;4812001;55;20081;-29
2023/04/25 15:00:20;;;;;;;;;;;22.60;59.20;;;;;;4753451;55;20148;-29
2023/04/25 15:05:21;;;;;;;;;;;22.60;59.30;;;;;;4746661;58;20326;-33
2023/04/25 15:10:22;;;;;;;;;;;22.50;59.10;;;;;;4754399;55;20072;-28
2023/04/25 15:15:23;;;;;;;;;;;22.50;59.20;;;;;;4810177;55;20072;-31
2023/04/25 15:20:26;;;;;;;;;;;22.50;59.10;;;;;;4832996;55;20339;-29
2023/04/25 15:25:28;;;;;;;;;;;22.50;59.10;;;;;;4793167;55;20386;-28
2023/04/25 15:30:29;;;;;;;;;;;22.50;59.10;;;;;;4745283;58;20307;-28
2023/04/25 15:35:29;;;;;;;;;;;22.50;59.10;;;;;;4777474;55;20053;-28
2023/04/25 15:40:30;;;;;;;;;;;22.50;59.20;;;;;;4746716;55;20351;-28
2023/04/25 15:45:31;;;;;;;;;;;22.50;59.10;;;;;;4770639;55;20136;-29
2023/04/25 15:50:32;;;;;;;;;;;22.40;59.00;;;;;;4854654;55;20358;-27
2023/04/25 15:55:35;;;;;;;;;;;22.40;59.00;;;;;;4790638;55;20053;-29
2023/04/25 16:00:36;;;;;;;;;;;22.40;58.90;;;;;;4815390;55;20191;-32
2023/04/25 16:05:37;;;;;;;;;;;22.40;58.90;;;;;;4824240;55;20109;-27
2023/04/25 16:10:38;;;;;;;;;;;22.40;58.90;;;;;;4745859;58;20056;-27
2023/04/25 16:15:39;;;;;;;;;;;22.40;58.80;;;;;;4756730;55;20076;-29
2023/04/25 16:20:39;;;;;;;;;;;22.40;58.80;;;;;;4746399;58;20314;-31
2023/04/25 16:25:41;;;;;;;;;;;22.40;58.80;;;;;;4762399;55;20103;-28
2023/04/25 16:30:42;;;;;;;;;;;22.40;58.80;;;;;;4791909;55;20350;-28
2023/04/25 16:35:43;;;;;;;;;;;22.40;58.70;;;;;;4755671;55;20096;-31
2023/04/25 16:40:43;;;;;;;;;;;22.40;58.70;;;;;;4796597;55;20088;-27
2023/04/25 16:45:44;;;;;;;;;;;22.40;58.70;;;;;;4768814;55;20117;-28
2023/04/25 16:50:45;;;;;;;;;;;22.40;58.70;;;;;;4761365;55;20275;-28
2023/04/25 16:55:46;;;;;;;;;;;22.40;58.70;;;;;;4746310;58;20072;-29
2023/04/25 17:00:46;;;;;;;;;;;22.40;58.70;;;;;;4745964;55;20080;-29
2023/04/25 17:05:49;;;;;;;;;;;22.40;58.70;;;;;;4746598;58;20068;-33
2023/04/25 17:10:53;;;;;;;;;;;22.40;58.70;;;;;;4751964;55;20056;-31
2023/04/25 17:15:53;;;;;;;;;;;22.40;58.60;;;;;;4764871;55;20064;-30
2023/04/25 17:20:54;;;;;;;;;;;22.40;58.60;;;;;;4777044;55;20318;-28
2023/04/25 17:25:55;;;;;;;;;;;22.40;58.60;;;;;;4746038;58;20168;-28
2023/04/25 17:30:56;;;;;;;;;;;22.40;58.50;;;;;;4757869;55;20116;-28
2023/04/25 17:35:57;;;;;;;;;;;22.40;58.50;;;;;;4747452;55;20414;-29
2023/04/25 17:40:57;;;;;;;;;;;22.40;58.50;;;;;;4758238;55;20204;-32
2023/04/25 17:45:58;;;;;;;;;;;22.40;58.50;;;;;;4746178;58;20069;-31
2023/04/25 17:50:59;;;;;;;;;;;22.30;58.40;;;;;;4793736;55;20077;-30
2023/04/25 17:56:00;;;;;;;;;;;22.30;58.40;;;;;;4756013;55;20064;-29
2023/04/25 18:01:02;;;;;;;;;;;22.40;58.40;;;;;;4836245;55;20060;-29
2023/04/25 18:06:04;;;;;;;;;;;22.40;58.30;;;;;;4771472;55;20352;-27
2023/04/25 18:11:05;;;;;;;;;;;22.30;58.30;;;;;;4745696;55;20073;-29
2023/04/25 18:16:06;;;;;;;;;;;22.30;58.20;;;;;;4746632;58;20290;-29
2023/04/25 18:21:08;;;;;;;;;;;22.30;58.20;;;;;;4778840;55;20160;-28
2023/04/25 18:26:08;;;;;;;;;;;22.30;58.20;;;;;;4746330;58;20353;-31
2023/04/25 18:31:10;;;;;;;;;;;22.40;58.20;;;;;;4752567;55;20120;-30
2023/04/25 18:36:11;;;;;;;;;;;22.30;58.20;;;;;;4781501;55;20343;-30
2023/04/25 18:41:11;;;;;;;;;;;22.30;58.10;;;;;;4751065;55;20097;-32
2023/04/25 18:46:12;;;;;;;;;;;22.30;58.10;;;;;;4791421;55;20116;-29
2023/04/25 18:51:13;;;;;;;;;;;22.30;58.10;;;;;;4830778;55;20311;-27
2023/04/25 18:56:14;;;;;;;;;;;22.30;58.10;;;;;;4805966;55;20287;-28
2023/04/25 19:01:14;;;;;;;;;;;22.30;58.10;;;;;;4817827;55;20343;-31
2023/04/25 19:06:15;;;;;;;;;;;22.30;58.10;;;;;;4771820;55;20076;-27
2023/04/25 19:11:16;;;;;;;;;;;22.30;58.10;;;;;;4752183;55;20120;-29
2023/04/25 19:16:17;;;;;;;;;;;22.30;58.10;;;;;;4794537;55;20382;-28
2023/04/25 19:21:17;;;;;;;;;;;22.30;58.00;;;;;;4786536;55;20347;-30
2023/04/25 19:26:19;;;;;;;;;;;22.30;57.90;;;;;;4812046;55;20077;-25
2023/04/25 19:31:20;;;;;;;;;;;22.30;57.90;;;;;;4768632;55;20395;-32
2023/04/25 19:36:21;;;;;;;;;;;22.30;57.90;;;;;;4784586;55;20120;-29
2023/04/25 19:41:22;;;;;;;;;;;22.30;57.90;;;;;;4746428;58;20307;-27
2023/04/25 19:46:23;;;;;;;;;;;22.30;57.80;;;;;;4746289;58;20128;-29
2023/04/25 19:51:25;;;;;;;;;;;22.30;57.80;;;;;;4746358;58;20318;-25
2023/04/25 19:56:26;;;;;;;;;;;22.30;57.80;;;;;;4746718;58;20381;-24
2023/04/25 20:01:27;;;;;;;;;;;22.30;57.70;;;;;;4751219;55;20279;-29
2023/04/25 20:06:28;;;;;;;;;;;22.30;57.70;;;;;;4849332;55;20093;-31
2023/04/25 20:11:28;;;;;;;;;;;22.30;57.70;;;;;;4746327;58;20105;-26
2023/04/25 20:16:30;;;;;;;;;;;22.30;57.70;;;;;;4864066;55;20091;-28
2023/04/25 20:21:32;;;;;;;;;;;22.30;57.70;;;;;;4746738;58;20283;-27
2023/04/25 20:26:33;;;;;;;;;;;22.30;57.60;;;;;;4792480;55;20299;-30
2023/04/25 20:31:35;;;;;;;;;;;22.20;57.50;;;;;;4745331;56;20116;-27
2023/04/25 20:36:36;;;;;;;;;;;22.30;57.50;;;;;;4934623;55;20394;-29
2023/04/25 20:41:36;;;;;;;;;;;22.30;57.50;;;;;;4765938;55;20060;-25
2023/04/25 20:46:37;;;;;;;;;;;22.30;57.60;;;;;;4822943;55;20307;-27
2023/04/25 20:51:38;;;;;;;;;;;22.30;57.50;;;;;;4758533;55;20064;-32
2023/04/25 20:56:39;;;;;;;;;;;22.20;57.40;;;;;;4750595;55;20392;-29
2023/04/25 21:01:39;;;;;;;;;;;22.30;57.40;;;;;;4888642;55;20060;-30
2023/04/25 21:06:40;;;;;;;;;;;22.30;57.40;;;;;;4746562;58;20105;-28
2023/04/25 21:11:44;;;;;;;;;;;22.30;57.40;;;;;;4823021;55;20414;-28
2023/04/25 21:16:45;;;;;;;;;;;22.30;57.30;;;;;;4777626;55;20326;-28
2023/04/25 21:21:46;;;;;;;;;;;22.30;57.30;;;;;;4782873;55;20056;-28
2023/04/25 21:26:46;;;;;;;;;;;22.30;57.30;;;;;;4807042;55;20295;-27
2023/04/25 21:31:47;;;;;;;;;;;22.30;57.40;;;;;;4746432;55;20336;-31
2023/04/25 21:36:48;;;;;;;;;;;22.30;57.30;;;;;;4914655;55;20052;-31
2023/04/25 21:41:48;;;;;;;;;;;22.30;57.20;;;;;;4746264;58;20077;-27
2023/04/25 21:46:49;;;;;;;;;;;22.30;57.30;;;;;;4950892;55;20100;-31
2023/04/25 21:51:50;;;;;;;;;;;22.30;57.20;;;;;;4746118;58;20307;-29
2023/04/25 21:56:51;;;;;;;;;;;22.30;57.20;;;;;;4746302;58;20088;-31
2023/04/25 22:01:52;;;;;;;;;;;22.30;57.30;;;;;;4851447;55;20362;-30
2023/04/25 22:06:52;;;;;;;;;;;22.30;57.20;;;;;;4762462;55;20362;-30
2023/04/25 22:11:53;;;;;;;;;;;22.30;57.20;;;;;;4745736;58;20319;-32
2023/04/25 22:16:54;;;;;;;;;;;22.30;57.20;;;;;;4865751;55;20179;-31
2023/04/25 22:21:55;;;;;;;;;;;22.30;57.20;;;;;;4804617;55;20315;-29
2023/04/25 22:26:56;;;;;;;;;;;22.20;57.10;;;;;;4746212;58;20295;-31
2023/04/25 22:31:57;;;;;;;;;;;22.30;57.20;;;;;;4745186;58;20068;-31
2023/04/25 22:36:58;;;;;;;;;;;22.20;57.20;;;;;;4831265;55;20161;-29
2023/04/25 22:41:59;;;;;;;;;;;22.30;57.10;;;;;;4795261;55;20343;-28
2023/04/25 22:47:00;;;;;;;;;;;22.30;57.10;;;;;;4975673;55;20112;-27
2023/04/25 22:52:02;;;;;;;;;;;22.30;57.10;;;;;;4775235;55;20322;-27
2023/04/25 22:57:07;;;;;;;;;;;22.30;57.10;;;;;;4803993;55;20354;-27
2023/04/25 23:02:08;;;;;;;;;;;22.20;57.10;;;;;;4787357;55;20303;-30
2023/04/25 23:07:09;;;;;;;;;;;22.30;57.10;;;;;;4758374;55;20077;-32
2023/04/25 23:12:10;;;;;;;;;;;22.30;57.10;;;;;;4746377;58;20295;-28
2023/04/25 23:17:10;;;;;;;;;;;22.30;57.10;;;;;;4758584;55;20120;-29
2023/04/25 23:22:11;;;;;;;;;;;22.20;57.00;;;;;;4746428;56;20179;-28
2023/04/25 23:27:12;;;;;;;;;;;22.30;57.10;;;;;;4802587;55;20318;-31
2023/04/25 23:32:13;;;;;;;;;;;22.20;57.00;;;;;;4787315;55;20140;-28
2023/04/25 23:37:13;;;;;;;;;;;22.20;57.00;;;;;;4746836;58;20346;-31
2023/04/25 23:42:14;;;;;;;;;;;22.30;57.10;;;;;;4832038;55;20384;-27
2023/04/25 23:47:17;;;;;;;;;;;22.20;57.00;;;;;;4746981;58;21044;-28
2023/04/25 23:52:18;;;;;;;;;;;22.30;57.60;;;;;;4756686;55;20306;-28
2023/04/25 23:57:19;;;;;;;;;;;22.20;56.90;;;;;;4800650;55;20128;-27
